Empire State — WDE4431 — position and weather

sailwx.info

Track history (hours):
 
Tides and Currents Weather Stations Pressure Air Temp Water Temp Dewpoint Dewpoint Depression Visibility Wind Speed Wind Dir Waves Ship Positions

Empire State

Owner: Crowley Petroleum Services, Jacksonville, FL. More information available from US FCC via Universal Licensing System and Coast Guard Vessel Documentation Center.

Last reported at 2017-Mar-28 07:31 UTC. Time now 2017-Mar-28 08:27 UTC.
Position N 33°42' W 118°09'.

Length 183 m; draft 9.9 m.

Type: Military. MMSI: 367353080.

Date/timePositionNaut miles runAvg speedWind from/ knotsBaromVisibWave heightAir tempDewpointWater temp
2017-Mar-28 07:31N 33°42' W 118°09'0 0.0
2017-Mar-28 06:31N 33°42' W 118°09'0 0.0
2017-Mar-28 05:22N 33°42' W 118°09'0 0.0
2017-Mar-28 04:16N 33°42' W 118°09'0 0.0
2017-Mar-28 03:31N 33°42' W 118°09'0 0.0
2017-Mar-28 02:28N 33°42' W 118°09'0 0.0
2017-Mar-28 01:31N 33°42' W 118°09'0 0.0
2017-Mar-28 00:32N 33°42' W 118°09'0 0.0
2017-Mar-27 23:31N 33°42' W 118°09'0 0.0
2017-Mar-27 22:32N 33°42' W 118°09'0 0.0
2017-Mar-27 21:31N 33°42' W 118°09'0 0.0
2017-Mar-27 20:19N 33°42' W 118°09'0 0.0
2017-Mar-27 19:08N 33°42' W 118°09'0 0.1
2017-Mar-27 17:11N 33°42' W 118°09'3 5.0
2017-Mar-27 16:33N 33°39' W 118°12'1110.9
2017-Mar-27 15:33N 33°36' W 118°24'1313.2
2017-Mar-27 14:33N 33°37' W 118°40'1313.2
2017-Mar-27 13:33N 33°38' W 118°56'1110.6
2017-Mar-27 12:32N 33°38' W 119°09'1313.4
2017-Mar-27 11:33N 33°38' W 119°25'1313.1
2017-Mar-27 10:33N 33°38' W 119°41'1413.1
2017-Mar-27 09:29N 33°38' W 119°58'1313.0
2017-Mar-27 08:28N 33°38' W 120°13'1213.3
2017-Mar-27 07:33N 33°38' W 120°28'1312.7
2017-Mar-27 06:33N 33°38' W 120°43'1313.0
2017-Mar-27 05:33N 33°44' W 120°57'1413.8
2017-Mar-27 04:34N 33°52' W 121°11'22412.8
2017-Mar-26 11:05N 37°09' W 123°22'813.7
2017-Mar-26 10:28N 37°16' W 123°17'1413.5
2017-Mar-26 09:27N 37°28' W 123°09'1011.0
2017-Mar-26 08:33N 37°36' W 123°01'10 9.9
2017-Mar-26 07:33N 37°41' W 122°50'10 9.9
2017-Mar-26 06:33N 37°46' W 122°39'1010.1
2017-Mar-26 05:34N 37°50' W 122°28'7 7.0
2017-Mar-26 04:34N 37°57' W 122°27'8 8.5
2017-Mar-26 03:33N 38°03' W 122°19'3 0.1
2017-Mar-24 17:33N 38°03' W 122°16'2 1.8
2017-Mar-24 16:33N 38°03' W 122°18'1010.2
2017-Mar-24 15:34N 37°56' W 122°27'1010.0
2017-Mar-24 14:34N 37°47' W 122°21'2 2.3
2017-Mar-24 13:31N 37°44' W 122°21'0 0.0
2017-Mar-24 12:31N 37°44' W 122°21'0 0.1
2017-Mar-24 11:31N 37°44' W 122°21'0 0.0
2017-Mar-24 10:31N 37°44' W 122°21'0 0.0
2017-Mar-24 09:31N 37°44' W 122°21'0 0.0
2017-Mar-24 08:31N 37°44' W 122°21'0 0.0
2017-Mar-24 07:31N 37°44' W 122°21'0 0.1
2017-Mar-24 06:31N 37°44' W 122°21'0 0.1
2017-Mar-24 05:31N 37°44' W 122°21'0 0.0
2017-Mar-24 04:31N 37°44' W 122°21'0 0.0
2017-Mar-24 03:31N 37°44' W 122°21'0 0.0
2017-Mar-24 02:31N 37°44' W 122°21'0 0.1
2017-Mar-24 01:31N 37°44' W 122°21'0 0.0
2017-Mar-24 00:31N 37°44' W 122°21'0 0.2
2017-Mar-23 23:31N 37°44' W 122°21'0 0.0
2017-Mar-23 22:31N 37°44' W 122°21'0 0.0
2017-Mar-23 21:31N 37°44' W 122°21'0 0.0
2017-Mar-23 20:31N 37°44' W 122°21'0 0.0
2017-Mar-23 19:31N 37°44' W 122°21'0 0.0
2017-Mar-23 18:31N 37°44' W 122°21'0 0.0
2017-Mar-23 17:31N 37°44' W 122°21'0 0.2
2017-Mar-23 16:31N 37°44' W 122°21'0 0.1
2017-Mar-23 15:33N 37°44' W 122°21'0 0.0
2017-Mar-23 14:34N 37°44' W 122°21'0 0.1
2017-Mar-23 13:34N 37°44' W 122°21'0 0.1
2017-Mar-23 12:33N 37°44' W 122°21'0 0.2
2017-Mar-23 11:34N 37°44' W 122°21'0 0.0
2017-Mar-23 10:33N 37°44' W 122°21'0 0.0
2017-Mar-23 09:33N 37°44' W 122°21'0 0.0
2017-Mar-23 08:33N 37°44' W 122°21'0 0.0
2017-Mar-23 07:33N 37°44' W 122°21'0 0.2
2017-Mar-23 06:34N 37°44' W 122°21'0 0.1
2017-Mar-23 05:34N 37°44' W 122°21'0 0.0
2017-Mar-23 04:34N 37°44' W 122°21'0 0.1
2017-Mar-23 03:33N 37°44' W 122°21'0 0.1
2017-Mar-23 02:33N 37°44' W 122°21'0 0.0
2017-Mar-23 01:33N 37°44' W 122°21'0 0.0
2017-Mar-23 00:33N 37°44' W 122°21'0 0.0
2017-Mar-22 23:33N 37°44' W 122°21'0 0.1
2017-Mar-22 22:33N 37°44' W 122°21'0 0.1
2017-Mar-22 21:33N 37°44' W 122°21'0 0.0
2017-Mar-22 20:33N 37°44' W 122°21'0 0.0
2017-Mar-22 19:33N 37°44' W 122°21'0 0.0
2017-Mar-22 18:33N 37°44' W 122°21'0 0.0
2017-Mar-22 17:33N 37°44' W 122°21'0 0.0
2017-Mar-22 16:33N 37°44' W 122°21'0 0.2
2017-Mar-22 15:33N 37°44' W 122°21'0 0.1
2017-Mar-22 14:33N 37°44' W 122°21'0 0.1
2017-Mar-22 13:34N 37°44' W 122°21'0 0.0
2017-Mar-22 12:33N 37°44' W 122°21'0 0.0
2017-Mar-22 11:33N 37°44' W 122°21'0 0.2
2017-Mar-22 10:33N 37°44' W 122°21'0 0.0
2017-Mar-22 09:33N 37°44' W 122°21'0 0.0
2017-Mar-22 08:33N 37°44' W 122°21'0 0.0
2017-Mar-22 07:33N 37°44' W 122°21'0 0.1
2017-Mar-22 06:33N 37°44' W 122°21'0 0.1
2017-Mar-22 05:33N 37°44' W 122°21'0 0.4
2017-Mar-22 04:33N 37°44' W 122°21'8 8.1
2017-Mar-22 03:33N 37°52' W 122°25'8 8.5
2017-Mar-22 02:33N 38°00' W 122°25'9 8.5
2017-Mar-22 01:33N 38°04' W 122°15'0 0.0
2017-Mar-20 20:30N 38°04' W 122°15'0 0.0
2017-Mar-20 19:30N 38°04' W 122°15'0 0.0
2017-Mar-20 16:33N 38°04' W 122°15'8 8.5
2017-Mar-20 15:33N 38°00' W 122°25'1111.5
2017-Mar-20 14:34N 37°49' W 122°23'5 4.6
2017-Mar-20 13:33N 37°45' W 122°20'0 0.1
2017-Mar-20 12:33N 37°45' W 122°20'0 0.1
2017-Mar-20 11:33N 37°45' W 122°20'0 0.0
2017-Mar-20 10:30N 37°45' W 122°20'0 0.0
2017-Mar-20 09:33N 37°45' W 122°20'0 0.0
2017-Mar-20 08:33N 37°45' W 122°20'0 0.1
2017-Mar-20 07:33N 37°45' W 122°20'0 0.1
2017-Mar-20 06:33N 37°45' W 122°20'0 0.0
2017-Mar-20 05:33N 37°45' W 122°20'0 0.0
2017-Mar-20 04:33N 37°45' W 122°20'0 0.1
2017-Mar-20 03:33N 37°45' W 122°20'0 0.1
2017-Mar-20 02:33N 37°45' W 122°20'0 0.0
2017-Mar-20 01:33N 37°45' W 122°20'0 0.1
2017-Mar-20 00:33N 37°45' W 122°20'0 0.0
2017-Mar-19 23:33N 37°45' W 122°20'0 0.0
2017-Mar-19 22:33N 37°45' W 122°20'0 0.0
2017-Mar-19 21:33N 37°45' W 122°20'0 0.0
2017-Mar-19 20:33N 37°45' W 122°20'0 0.2
2017-Mar-19 19:33N 37°45' W 122°20'0 0.0
2017-Mar-19 18:33N 37°45' W 122°20'0 0.0
2017-Mar-19 17:33N 37°45' W 122°20'0 0.0
2017-Mar-19 16:33N 37°45' W 122°20'0 0.0
2017-Mar-19 15:33N 37°45' W 122°20'3 2.8
2017-Mar-19 14:33N 37°48' W 122°22'1110.8
2017-Mar-19 13:33N 37°47' W 122°35'10 9.8
2017-Mar-19 12:33N 37°41' W 122°46'10 9.8
2017-Mar-19 11:33N 37°36' W 122°56'10 9.9
2017-Mar-19 10:33N 37°30' W 123°07'10 9.9
2017-Mar-19 09:33N 37°25' W 123°17'10 9.7
2017-Mar-19 08:32N 37°21' W 123°28'10 9.9
2017-Mar-19 07:33N 37°17' W 123°40'1010.1
2017-Mar-19 06:33N 37°13' W 123°51'1010.1
2017-Mar-19 05:33N 37°08' W 124°03'  
Track history (hours):
 
Tides and Currents Weather Stations Pressure Air Temp Water Temp Dewpoint Dewpoint Depression Visibility Wind Speed Wind Dir Waves Ship Positions

Empire State

Owner: Crowley Petroleum Services, Jacksonville, FL. More information available from US FCC via Universal Licensing System and Coast Guard Vessel Documentation Center.

Last reported at 2017-Mar-28 07:31 UTC. Time now 2017-Mar-28 08:27 UTC.
Position N 33°42' W 118°09'.

Length 183 m; draft 9.9 m.

Type: Military. MMSI: 367353080.

Date/timePositionNaut miles runAvg speedWind from/ knotsBaromVisibWave heightAir tempDewpointWater temp
2017-Mar-28 07:31N 33°42' W 118°09'0 0.0
2017-Mar-28 06:31N 33°42' W 118°09'0 0.0
2017-Mar-28 05:22N 33°42' W 118°09'0 0.0
2017-Mar-28 04:16N 33°42' W 118°09'0 0.0
2017-Mar-28 03:31N 33°42' W 118°09'0 0.0
2017-Mar-28 02:28N 33°42' W 118°09'0 0.0
2017-Mar-28 01:31N 33°42' W 118°09'0 0.0
2017-Mar-28 00:32N 33°42' W 118°09'0 0.0
2017-Mar-27 23:31N 33°42' W 118°09'0 0.0
2017-Mar-27 22:32N 33°42' W 118°09'0 0.0
2017-Mar-27 21:31N 33°42' W 118°09'0 0.0
2017-Mar-27 20:19N 33°42' W 118°09'0 0.0
2017-Mar-27 19:08N 33°42' W 118°09'0 0.1
2017-Mar-27 17:11N 33°42' W 118°09'3 5.0
2017-Mar-27 16:33N 33°39' W 118°12'1110.9
2017-Mar-27 15:33N 33°36' W 118°24'1313.2
2017-Mar-27 14:33N 33°37' W 118°40'1313.2
2017-Mar-27 13:33N 33°38' W 118°56'1110.6
2017-Mar-27 12:32N 33°38' W 119°09'1313.4
2017-Mar-27 11:33N 33°38' W 119°25'1313.1
2017-Mar-27 10:33N 33°38' W 119°41'1413.1
2017-Mar-27 09:29N 33°38' W 119°58'1313.0
2017-Mar-27 08:28N 33°38' W 120°13'1213.3
2017-Mar-27 07:33N 33°38' W 120°28'1312.7
2017-Mar-27 06:33N 33°38' W 120°43'1313.0
2017-Mar-27 05:33N 33°44' W 120°57'1413.8
2017-Mar-27 04:34N 33°52' W 121°11'22412.8
2017-Mar-26 11:05N 37°09' W 123°22'813.7
2017-Mar-26 10:28N 37°16' W 123°17'1413.5
2017-Mar-26 09:27N 37°28' W 123°09'1011.0
2017-Mar-26 08:33N 37°36' W 123°01'10 9.9
2017-Mar-26 07:33N 37°41' W 122°50'10 9.9
2017-Mar-26 06:33N 37°46' W 122°39'1010.1
2017-Mar-26 05:34N 37°50' W 122°28'7 7.0
2017-Mar-26 04:34N 37°57' W 122°27'8 8.5
2017-Mar-26 03:33N 38°03' W 122°19'3 0.1
2017-Mar-24 17:33N 38°03' W 122°16'2 1.8
2017-Mar-24 16:33N 38°03' W 122°18'1010.2
2017-Mar-24 15:34N 37°56' W 122°27'1010.0
2017-Mar-24 14:34N 37°47' W 122°21'2 2.3
2017-Mar-24 13:31N 37°44' W 122°21'0 0.0
2017-Mar-24 12:31N 37°44' W 122°21'0 0.1
2017-Mar-24 11:31N 37°44' W 122°21'0 0.0
2017-Mar-24 10:31N 37°44' W 122°21'0 0.0
2017-Mar-24 09:31N 37°44' W 122°21'0 0.0
2017-Mar-24 08:31N 37°44' W 122°21'0 0.0
2017-Mar-24 07:31N 37°44' W 122°21'0 0.1
2017-Mar-24 06:31N 37°44' W 122°21'0 0.1
2017-Mar-24 05:31N 37°44' W 122°21'0 0.0
2017-Mar-24 04:31N 37°44' W 122°21'0 0.0
2017-Mar-24 03:31N 37°44' W 122°21'0 0.0
2017-Mar-24 02:31N 37°44' W 122°21'0 0.1
2017-Mar-24 01:31N 37°44' W 122°21'0 0.0
2017-Mar-24 00:31N 37°44' W 122°21'0 0.2
2017-Mar-23 23:31N 37°44' W 122°21'0 0.0
2017-Mar-23 22:31N 37°44' W 122°21'0 0.0
2017-Mar-23 21:31N 37°44' W 122°21'0 0.0
2017-Mar-23 20:31N 37°44' W 122°21'0 0.0
2017-Mar-23 19:31N 37°44' W 122°21'0 0.0
2017-Mar-23 18:31N 37°44' W 122°21'0 0.0
2017-Mar-23 17:31N 37°44' W 122°21'0 0.2
2017-Mar-23 16:31N 37°44' W 122°21'0 0.1
2017-Mar-23 15:33N 37°44' W 122°21'0 0.0
2017-Mar-23 14:34N 37°44' W 122°21'0 0.1
2017-Mar-23 13:34N 37°44' W 122°21'0 0.1
2017-Mar-23 12:33N 37°44' W 122°21'0 0.2
2017-Mar-23 11:34N 37°44' W 122°21'0 0.0
2017-Mar-23 10:33N 37°44' W 122°21'0 0.0
2017-Mar-23 09:33N 37°44' W 122°21'0 0.0
2017-Mar-23 08:33N 37°44' W 122°21'0 0.0
2017-Mar-23 07:33N 37°44' W 122°21'0 0.2
2017-Mar-23 06:34N 37°44' W 122°21'0 0.1
2017-Mar-23 05:34N 37°44' W 122°21'0 0.0
2017-Mar-23 04:34N 37°44' W 122°21'0 0.1
2017-Mar-23 03:33N 37°44' W 122°21'0 0.1
2017-Mar-23 02:33N 37°44' W 122°21'0 0.0
2017-Mar-23 01:33N 37°44' W 122°21'0 0.0
2017-Mar-23 00:33N 37°44' W 122°21'0 0.0
2017-Mar-22 23:33N 37°44' W 122°21'0 0.1
2017-Mar-22 22:33N 37°44' W 122°21'0 0.1
2017-Mar-22 21:33N 37°44' W 122°21'0 0.0
2017-Mar-22 20:33N 37°44' W 122°21'0 0.0
2017-Mar-22 19:33N 37°44' W 122°21'0 0.0
2017-Mar-22 18:33N 37°44' W 122°21'0 0.0
2017-Mar-22 17:33N 37°44' W 122°21'0 0.0
2017-Mar-22 16:33N 37°44' W 122°21'0 0.2
2017-Mar-22 15:33N 37°44' W 122°21'0 0.1
2017-Mar-22 14:33N 37°44' W 122°21'0 0.1
2017-Mar-22 13:34N 37°44' W 122°21'0 0.0
2017-Mar-22 12:33N 37°44' W 122°21'0 0.0
2017-Mar-22 11:33N 37°44' W 122°21'0 0.2
2017-Mar-22 10:33N 37°44' W 122°21'0 0.0
2017-Mar-22 09:33N 37°44' W 122°21'0 0.0
2017-Mar-22 08:33N 37°44' W 122°21'0 0.0
2017-Mar-22 07:33N 37°44' W 122°21'0 0.1
2017-Mar-22 06:33N 37°44' W 122°21'0 0.1
2017-Mar-22 05:33N 37°44' W 122°21'0 0.4
2017-Mar-22 04:33N 37°44' W 122°21'8 8.1
2017-Mar-22 03:33N 37°52' W 122°25'8 8.5
2017-Mar-22 02:33N 38°00' W 122°25'9 8.5
2017-Mar-22 01:33N 38°04' W 122°15'0 0.0
2017-Mar-20 20:30N 38°04' W 122°15'0 0.0
2017-Mar-20 19:30N 38°04' W 122°15'0 0.0
2017-Mar-20 16:33N 38°04' W 122°15'8 8.5
2017-Mar-20 15:33N 38°00' W 122°25'1111.5
2017-Mar-20 14:34N 37°49' W 122°23'5 4.6
2017-Mar-20 13:33N 37°45' W 122°20'0 0.1
2017-Mar-20 12:33N 37°45' W 122°20'0 0.1
2017-Mar-20 11:33N 37°45' W 122°20'0 0.0
2017-Mar-20 10:30N 37°45' W 122°20'0 0.0
2017-Mar-20 09:33N 37°45' W 122°20'0 0.0
2017-Mar-20 08:33N 37°45' W 122°20'0 0.1
2017-Mar-20 07:33N 37°45' W 122°20'0 0.1
2017-Mar-20 06:33N 37°45' W 122°20'0 0.0
2017-Mar-20 05:33N 37°45' W 122°20'0 0.0
2017-Mar-20 04:33N 37°45' W 122°20'0 0.1
2017-Mar-20 03:33N 37°45' W 122°20'0 0.1
2017-Mar-20 02:33N 37°45' W 122°20'0 0.0
2017-Mar-20 01:33N 37°45' W 122°20'0 0.1
2017-Mar-20 00:33N 37°45' W 122°20'0 0.0
2017-Mar-19 23:33N 37°45' W 122°20'0 0.0
2017-Mar-19 22:33N 37°45' W 122°20'0 0.0
2017-Mar-19 21:33N 37°45' W 122°20'0 0.0
2017-Mar-19 20:33N 37°45' W 122°20'0 0.2
2017-Mar-19 19:33N 37°45' W 122°20'0 0.0
2017-Mar-19 18:33N 37°45' W 122°20'0 0.0
2017-Mar-19 17:33N 37°45' W 122°20'0 0.0
2017-Mar-19 16:33N 37°45' W 122°20'0 0.0
2017-Mar-19 15:33N 37°45' W 122°20'3 2.8
2017-Mar-19 14:33N 37°48' W 122°22'1110.8
2017-Mar-19 13:33N 37°47' W 122°35'10 9.8
2017-Mar-19 12:33N 37°41' W 122°46'10 9.8
2017-Mar-19 11:33N 37°36' W 122°56'10 9.9
2017-Mar-19 10:33N 37°30' W 123°07'10 9.9
2017-Mar-19 09:33N 37°25' W 123°17'10 9.7
2017-Mar-19 08:32N 37°21' W 123°28'10 9.9
2017-Mar-19 07:33N 37°17' W 123°40'1010.1
2017-Mar-19 06:33N 37°13' W 123°51'1010.1
2017-Mar-19 05:33N 37°08' W 124°03'  

Dump ship's entire track history